createdAt,value
2023-01-22T00:00:10.428Z,0.1
2023-01-22T00:03:10.061Z,0.1
2023-01-22T00:06:10.157Z,0.1
2023-01-22T00:09:10.172Z,0.1
2023-01-22T00:12:10.230Z,0.1
2023-01-22T00:15:10.249Z,0.1
2023-01-22T00:18:10.117Z,0.1
2023-01-22T00:21:10.179Z,0.1
2023-01-22T00:24:10.340Z,0.1
2023-01-22T00:27:10.299Z,0.1
2023-01-22T00:30:10.193Z,0.1
2023-01-22T00:33:10.213Z,0.1
2023-01-22T00:36:10.049Z,0.1
2023-01-22T00:39:10.065Z,0.1
2023-01-22T00:42:10.097Z,0.1
2023-01-22T00:45:10.113Z,0.1
2023-01-22T00:48:10.103Z,0.1
2023-01-22T00:51:10.418Z,0.1
2023-01-22T00:54:10.208Z,0.1
2023-01-22T00:57:10.342Z,0.1
2023-01-22T01:00:10.656Z,0.1
2023-01-22T01:03:10.527Z,0.1
2023-01-22T01:06:10.253Z,0.2
2023-01-22T01:09:10.335Z,0.1
2023-01-22T01:12:11.732Z,0.1
2023-01-22T01:15:10.714Z,0.1
2023-01-22T01:18:10.367Z,0.1
2023-01-22T01:21:11.246Z,0.1
2023-01-22T01:24:10.254Z,0.1
2023-01-22T01:27:10.451Z,0.1
2023-01-22T01:30:10.433Z,0.1
2023-01-22T01:33:10.867Z,0.1
2023-01-22T01:36:10.809Z,0.2
2023-01-22T01:39:10.376Z,0.2
2023-01-22T01:42:10.244Z,0.2
2023-01-22T01:45:11.556Z,0.2
2023-01-22T01:48:10.172Z,0.2
2023-01-22T01:51:10.615Z,0.2
2023-01-22T01:54:10.207Z,0.2
2023-01-22T01:57:10.158Z,0.3
2023-01-22T02:00:10.508Z,0.3
2023-01-22T02:03:10.181Z,0.2
2023-01-22T02:06:10.045Z,0.2
2023-01-22T02:09:10.509Z,0.3
2023-01-22T02:12:10.450Z,0.3
2023-01-22T02:15:10.175Z,0.3
2023-01-22T02:18:10.157Z,0.3
2023-01-22T02:21:11.560Z,0.3
2023-01-22T02:24:10.409Z,0.3
2023-01-22T02:27:10.262Z,0.3
2023-01-22T02:30:10.371Z,0.3
2023-01-22T02:33:10.684Z,0.2
2023-01-22T02:36:11.375Z,0.3
2023-01-22T02:39:10.069Z,0.3
2023-01-22T02:42:10.178Z,0.3
2023-01-22T02:45:11.889Z,0.3
2023-01-22T02:48:10.155Z,0.3
2023-01-22T02:51:10.673Z,0.2
2023-01-22T02:54:10.640Z,0.2
2023-01-22T02:57:10.337Z,0.3
2023-01-22T03:00:10.396Z,0.2
2023-01-22T03:03:10.117Z,0.2
2023-01-22T03:06:10.170Z,0.2
2023-01-22T03:09:10.067Z,0.2
2023-01-22T03:12:10.505Z,0.2
2023-01-22T03:15:11.208Z,0.2
2023-01-22T03:18:10.117Z,0.1
2023-01-22T03:21:10.302Z,0.1
2023-01-22T03:24:10.111Z,0.1
2023-01-22T03:27:10.045Z,0.1
2023-01-22T03:30:10.271Z,0.1
2023-01-22T03:33:10.077Z,0.1
2023-01-22T03:36:10.684Z,0.1
2023-01-22T03:39:10.128Z,0.1
2023-01-22T03:42:10.122Z,0.1
2023-01-22T03:45:10.282Z,0.1
2023-01-22T03:48:10.138Z,0.2
2023-01-22T03:51:10.385Z,0.1
2023-01-22T03:54:10.277Z,0.1
2023-01-22T03:57:10.083Z,0.2
2023-01-22T04:00:10.171Z,0.2
2023-01-22T04:03:10.131Z,0.1
2023-01-22T04:06:10.143Z,0.2
2023-01-22T04:09:10.139Z,0.1
2023-01-22T04:12:10.115Z,0.1
2023-01-22T04:15:10.270Z,0.1
2023-01-22T04:18:10.084Z,0.1
2023-01-22T04:21:10.258Z,0.1
2023-01-22T04:24:10.171Z,0.1
2023-01-22T04:27:10.118Z,0.1
2023-01-22T04:30:10.339Z,0.1
2023-01-22T04:33:10.053Z,0.1
2023-01-22T04:36:10.094Z,0.1
2023-01-22T04:39:10.151Z,0.1
2023-01-22T04:42:10.189Z,0.1
2023-01-22T04:45:10.356Z,0.1
2023-01-22T04:48:10.262Z,0.1
2023-01-22T04:51:10.448Z,0.1
2023-01-22T04:54:10.727Z,0.1
2023-01-22T04:57:10.110Z,0.1
2023-01-22T05:00:10.435Z,0.1
2023-01-22T05:03:10.072Z,0.1
2023-01-22T05:06:10.088Z,0.1
2023-01-22T05:09:10.137Z,0.1
2023-01-22T05:12:10.085Z,0.1
2023-01-22T05:15:29.973Z,0.1
2023-01-22T05:18:10.039Z,0.1
2023-01-22T05:21:10.398Z,0.1
2023-01-22T05:24:10.060Z,0.1
2023-01-22T05:27:10.200Z,0.1
2023-01-22T05:30:10.257Z,0.1
2023-01-22T05:33:13.493Z,0.2
2023-01-22T05:36:10.048Z,0.1
2023-01-22T05:39:10.266Z,0.2
2023-01-22T05:42:10.017Z,0.2
2023-01-22T05:45:10.333Z,0.2
2023-01-22T05:48:10.089Z,0.1
2023-01-22T05:51:10.409Z,0.1
2023-01-22T05:54:10.100Z,0.1
2023-01-22T05:57:10.571Z,0.1
2023-01-22T06:00:10.317Z,0.1
2023-01-22T06:03:10.207Z,0.1
2023-01-22T06:06:10.110Z,0.1
2023-01-22T06:09:10.121Z,0.1
2023-01-22T06:12:10.148Z,0.1
2023-01-22T06:15:10.316Z,0.1
2023-01-22T06:18:10.174Z,0.1
2023-01-22T06:21:10.076Z,0.1
2023-01-22T06:24:10.124Z,0.1
2023-01-22T06:27:10.006Z,0.1
2023-01-22T06:30:10.223Z,0.2
2023-01-22T06:33:10.113Z,0.2
2023-01-22T06:36:10.155Z,0.2
2023-01-22T06:39:10.079Z,0.2
2023-01-22T06:42:10.060Z,0.2
2023-01-22T06:45:10.196Z,0.2
2023-01-22T06:48:10.179Z,0.3
2023-01-22T06:51:10.606Z,0.3
2023-01-22T06:54:10.325Z,0.2
2023-01-22T06:57:10.165Z,0.3
2023-01-22T07:00:10.300Z,0.3
2023-01-22T07:03:10.062Z,0.3
2023-01-22T07:06:10.170Z,0.3
2023-01-22T07:09:10.103Z,0.3
2023-01-22T07:12:10.017Z,0.3
2023-01-22T07:15:10.979Z,0.3
2023-01-22T07:18:10.219Z,0.3
2023-01-22T07:21:10.327Z,0.3
2023-01-22T07:24:10.141Z,0.3
2023-01-22T07:27:10.187Z,0.3
2023-01-22T07:30:10.440Z,0.3
2023-01-22T07:33:10.242Z,0.3
2023-01-22T07:36:10.257Z,0.3
2023-01-22T07:39:10.301Z,0.3
2023-01-22T07:42:10.469Z,0.4
2023-01-22T07:45:10.345Z,0.3
2023-01-22T07:48:10.222Z,0.3
2023-01-22T07:51:10.435Z,0.3
2023-01-22T07:54:10.345Z,0.3
2023-01-22T07:57:10.201Z,0.4
2023-01-22T08:00:10.402Z,0.4
2023-01-22T08:03:10.204Z,0.4
2023-01-22T08:06:10.306Z,0.4
2023-01-22T08:09:10.143Z,0.4
2023-01-22T08:12:10.335Z,0.4
2023-01-22T08:15:10.226Z,0.4
2023-01-22T08:18:10.295Z,0.4
2023-01-22T08:21:10.491Z,0.4
2023-01-22T08:24:10.299Z,0.5
2023-01-22T08:27:10.178Z,0.5
2023-01-22T08:30:10.307Z,0.6
2023-01-22T08:33:10.148Z,0.6
2023-01-22T08:36:10.250Z,0.6
2023-01-22T08:39:10.199Z,0.6
2023-01-22T08:42:10.110Z,0.6
2023-01-22T08:45:10.219Z,0.6
2023-01-22T08:48:10.098Z,0.6
2023-01-22T08:51:10.494Z,0.6
2023-01-22T08:57:10.181Z,0.6
2023-01-22T09:00:10.983Z,0.6
2023-01-22T09:03:10.206Z,0.7
2023-01-22T09:06:10.223Z,0.6
2023-01-22T09:09:10.223Z,0.6
2023-01-22T09:12:10.199Z,0.6
2023-01-22T09:15:10.338Z,0.6
2023-01-22T09:18:10.295Z,0.6
2023-01-22T09:21:10.277Z,0.6
2023-01-22T09:24:10.679Z,0.6
2023-01-22T09:27:10.230Z,0.6
2023-01-22T09:30:10.548Z,0.6
2023-01-22T09:33:10.241Z,0.6
2023-01-22T09:36:10.250Z,0.6
2023-01-22T09:39:10.197Z,0.6
2023-01-22T09:42:10.220Z,0.6
2023-01-22T09:45:10.277Z,0.6
2023-01-22T09:48:10.199Z,0.6
2023-01-22T09:51:10.552Z,0.6
2023-01-22T09:54:10.394Z,0.6
2023-01-22T09:57:13.003Z,0.6
2023-01-22T10:00:11.284Z,0.7
2023-01-22T10:03:10.162Z,0.7
2023-01-22T10:06:10.229Z,0.7
2023-01-22T10:09:10.126Z,0.8
2023-01-22T10:12:10.238Z,0.8
2023-01-22T10:15:25.821Z,0.9
2023-01-22T10:18:10.181Z,0.8
2023-01-22T10:21:10.114Z,0.8
2023-01-22T10:24:10.468Z,0.8
2023-01-22T10:27:10.154Z,0.8
2023-01-22T10:30:10.897Z,0.8
2023-01-22T10:33:10.133Z,0.8
2023-01-22T10:36:10.374Z,0.8
2023-01-22T10:39:10.355Z,0.9
2023-01-22T10:42:10.262Z,0.9
2023-01-22T10:45:10.245Z,0.9
2023-01-22T10:48:10.375Z,0.9
2023-01-22T10:51:10.542Z,0.9
2023-01-22T10:54:10.303Z,0.9
2023-01-22T10:57:10.328Z,0.9
2023-01-22T11:00:10.404Z,1
2023-01-22T11:03:10.176Z,1.1
2023-01-22T11:06:10.268Z,1.1
2023-01-22T11:09:10.291Z,1.1
2023-01-22T11:12:10.323Z,1.1
2023-01-22T11:15:10.301Z,1.1
2023-01-22T11:18:10.460Z,1.1
2023-01-22T11:21:10.242Z,1.1
2023-01-22T11:24:10.319Z,1.1
2023-01-22T11:27:10.397Z,1.1
2023-01-22T11:30:10.740Z,1.1
2023-01-22T11:33:10.167Z,1.1
2023-01-22T11:36:13.210Z,1.1
2023-01-22T11:39:10.409Z,1.1
2023-01-22T11:42:10.476Z,1.1
2023-01-22T11:45:10.207Z,1.1
2023-01-22T11:48:10.550Z,1
2023-01-22T11:51:10.469Z,0.9
2023-01-22T11:54:12.019Z,0.9
2023-01-22T11:57:10.151Z,0.9
2023-01-22T12:00:10.670Z,0.9
2023-01-22T12:03:10.351Z,1
2023-01-22T12:06:10.355Z,0.9
2023-01-22T12:09:10.438Z,0.9
2023-01-22T12:12:10.618Z,0.9
2023-01-22T12:15:10.172Z,1
2023-01-22T12:18:10.280Z,0.9
2023-01-22T12:21:10.191Z,0.9
2023-01-22T12:24:10.395Z,0.9
2023-01-22T12:27:12.210Z,0.9
2023-01-22T12:30:10.482Z,0.9
2023-01-22T12:33:14.166Z,0.9
2023-01-22T12:36:10.435Z,0.9
2023-01-22T12:39:10.365Z,0.9
2023-01-22T12:42:10.265Z,0.9
2023-01-22T12:45:10.335Z,0.9
2023-01-22T12:48:10.382Z,0.9
2023-01-22T12:51:10.509Z,1
2023-01-22T12:54:10.392Z,1
2023-01-22T12:57:10.236Z,1
2023-01-22T13:00:10.465Z,1
2023-01-22T13:03:10.771Z,1
2023-01-22T13:06:10.414Z,1
2023-01-22T13:09:10.360Z,0.9
2023-01-22T13:12:10.378Z,0.9
2023-01-22T13:15:10.328Z,0.9
2023-01-22T13:18:16.998Z,0.9
2023-01-22T13:21:10.298Z,1
2023-01-22T13:24:10.515Z,1
2023-01-22T13:27:10.197Z,1
2023-01-22T13:30:10.722Z,1.1
2023-01-22T13:33:10.248Z,1.1
2023-01-22T13:36:10.487Z,1.1
2023-01-22T13:39:10.296Z,1.1
2023-01-22T13:42:12.379Z,1.2
2023-01-22T13:45:10.284Z,1.2
2023-01-22T13:48:13.073Z,1.2
2023-01-22T13:51:10.905Z,1.2
2023-01-22T13:54:10.191Z,1.2
2023-01-22T13:57:10.251Z,1.1
2023-01-22T14:00:10.599Z,1
2023-01-22T14:03:10.174Z,0.9
2023-01-22T14:06:10.423Z,0.9
2023-01-22T14:09:10.448Z,0.9
2023-01-22T14:12:10.457Z,0.9
2023-01-22T14:15:10.552Z,0.9
2023-01-22T14:18:10.356Z,0.9
2023-01-22T14:21:10.207Z,0.9
2023-01-22T14:24:10.350Z,0.9
2023-01-22T14:27:10.200Z,0.8
2023-01-22T14:30:10.867Z,0.9
2023-01-22T14:33:10.368Z,0.9
2023-01-22T14:36:10.495Z,0.9
2023-01-22T14:39:13.307Z,0.9
2023-01-22T14:42:10.374Z,0.9
2023-01-22T14:45:10.372Z,0.8
2023-01-22T14:48:10.512Z,0.9
2023-01-22T14:51:10.633Z,0.9
2023-01-22T14:54:10.188Z,0.8
2023-01-22T14:57:10.331Z,0.8
2023-01-22T15:00:10.718Z,0.8
2023-01-22T15:03:10.342Z,0.8
2023-01-22T15:06:10.448Z,0.8
2023-01-22T15:09:10.435Z,0.8
2023-01-22T15:12:10.470Z,0.8
2023-01-22T15:15:10.397Z,0.8
2023-01-22T15:18:10.499Z,0.7
2023-01-22T15:21:10.572Z,0.7
2023-01-22T15:24:10.691Z,0.7
2023-01-22T15:27:10.480Z,0.6
2023-01-22T15:30:10.664Z,0.6
2023-01-22T15:33:10.231Z,0.6
2023-01-22T15:36:10.519Z,0.6
2023-01-22T15:39:10.473Z,0.6
2023-01-22T15:42:10.402Z,0.6
2023-01-22T15:45:10.304Z,0.6
2023-01-22T15:48:10.394Z,0.6
2023-01-22T15:51:10.543Z,0.6
2023-01-22T15:54:10.403Z,0.6
2023-01-22T15:57:10.170Z,0.6
2023-01-22T16:00:10.669Z,0.6
2023-01-22T16:03:10.294Z,0.6
2023-01-22T16:06:10.420Z,0.6
2023-01-22T16:09:10.733Z,0.6
2023-01-22T16:12:10.403Z,0.6
2023-01-22T16:15:10.122Z,0.6
2023-01-22T16:18:10.243Z,0.6
2023-01-22T16:21:10.219Z,0.6
2023-01-22T16:24:10.469Z,0.6
2023-01-22T16:27:10.232Z,0.6
2023-01-22T16:30:10.562Z,0.6
2023-01-22T16:33:13.466Z,0.6
2023-01-22T16:36:10.254Z,0.6
2023-01-22T16:39:10.487Z,0.6
2023-01-22T16:42:10.391Z,0.6
2023-01-22T16:45:10.269Z,0.6
2023-01-22T16:48:10.427Z,0.6
2023-01-22T16:51:10.528Z,0.6
2023-01-22T16:54:10.221Z,0.6
2023-01-22T16:57:10.195Z,0.6
2023-01-22T17:00:10.519Z,0.6
2023-01-22T17:03:10.221Z,0.6
2023-01-22T17:06:10.347Z,0.6
2023-01-22T17:09:10.396Z,0.6
2023-01-22T17:12:10.592Z,0.6
2023-01-22T17:15:10.355Z,0.6
2023-01-22T17:18:10.387Z,0.6
2023-01-22T17:21:13.352Z,0.6
2023-01-22T17:24:10.619Z,0.6
2023-01-22T17:27:10.242Z,0.6
2023-01-22T17:30:10.229Z,0.6
2023-01-22T17:33:10.367Z,0.6
2023-01-22T17:36:10.321Z,0.6
2023-01-22T17:39:10.424Z,0.6
2023-01-22T17:42:10.191Z,0.6
2023-01-22T17:45:10.255Z,0.6
2023-01-22T17:48:10.288Z,0.6
2023-01-22T17:51:10.491Z,0.6
2023-01-22T17:54:10.114Z,0.6
2023-01-22T17:57:10.308Z,0.6
2023-01-22T18:00:10.564Z,0.6
2023-01-22T18:03:10.523Z,0.6
2023-01-22T18:06:10.479Z,0.6
2023-01-22T18:09:10.339Z,0.6
2023-01-22T18:12:10.290Z,0.6
2023-01-22T18:15:10.412Z,0.6
2023-01-22T18:18:10.395Z,0.6
2023-01-22T18:21:10.335Z,0.6
2023-01-22T18:24:10.374Z,0.6
2023-01-22T18:27:10.352Z,0.5
2023-01-22T18:30:10.389Z,0.5
2023-01-22T18:33:10.346Z,0.6
2023-01-22T18:36:10.296Z,0.6
2023-01-22T18:39:10.512Z,0.6
2023-01-22T18:42:10.278Z,0.6
2023-01-22T18:45:10.393Z,0.6
2023-01-22T18:48:10.403Z,0.6
2023-01-22T18:51:10.692Z,0.6
2023-01-22T18:54:10.165Z,0.6
2023-01-22T18:57:10.435Z,0.6
2023-01-22T19:00:10.405Z,0.6
2023-01-22T19:03:10.643Z,0.6
2023-01-22T19:06:10.263Z,0.6
2023-01-22T19:09:10.801Z,0.6
2023-01-22T19:12:10.671Z,0.6
2023-01-22T19:15:10.499Z,0.6
2023-01-22T19:18:10.264Z,0.6
2023-01-22T19:21:10.232Z,0.6
2023-01-22T19:24:10.461Z,0.6
2023-01-22T19:27:10.379Z,0.7
2023-01-22T19:30:10.349Z,0.6
2023-01-22T19:33:10.411Z,0.6
2023-01-22T19:36:10.271Z,0.6
2023-01-22T19:39:10.275Z,0.6
2023-01-22T19:42:10.493Z,0.6
2023-01-22T19:45:10.468Z,0.6
2023-01-22T19:48:10.467Z,0.6
2023-01-22T19:51:11.118Z,0.6
2023-01-22T19:54:10.157Z,0.6
2023-01-22T19:57:10.414Z,0.6
2023-01-22T20:00:10.673Z,0.6
2023-01-22T20:03:10.936Z,0.6
2023-01-22T20:06:10.298Z,0.6
2023-01-22T20:09:10.804Z,0.6
2023-01-22T20:12:10.667Z,0.6
2023-01-22T20:15:10.635Z,0.6
2023-01-22T20:18:10.437Z,0.6
2023-01-22T20:21:10.548Z,0.6
2023-01-22T20:24:10.274Z,0.7
2023-01-22T20:27:10.422Z,0.6
2023-01-22T20:30:10.299Z,0.7
2023-01-22T20:33:10.484Z,0.7
2023-01-22T20:36:10.516Z,0.7
2023-01-22T20:39:10.427Z,0.7
2023-01-22T20:42:13.951Z,0.7
2023-01-22T20:45:10.113Z,0.7
2023-01-22T20:48:10.097Z,0.8
2023-01-22T20:51:10.349Z,0.8
2023-01-22T20:54:10.039Z,0.8
2023-01-22T20:57:10.038Z,0.8
2023-01-22T21:00:10.155Z,0.8
2023-01-22T21:03:10.152Z,0.8
2023-01-22T21:06:11.406Z,0.8
2023-01-22T21:09:10.458Z,0.8
2023-01-22T21:12:10.082Z,0.8
2023-01-22T21:15:10.036Z,0.8
2023-01-22T21:18:10.028Z,0.8
2023-01-22T21:21:10.089Z,0.8
2023-01-22T21:24:10.141Z,0.8
2023-01-22T21:27:10.053Z,0.8
2023-01-22T21:30:10.065Z,0.8
2023-01-22T21:33:10.147Z,0.8
2023-01-22T21:36:10.093Z,0.8
2023-01-22T21:39:10.323Z,0.8
2023-01-22T21:42:10.088Z,0.8
2023-01-22T21:45:10.650Z,0.8
2023-01-22T21:48:10.081Z,0.8
2023-01-22T21:51:10.297Z,0.8
2023-01-22T21:54:10.092Z,0.8
2023-01-22T21:57:10.144Z,0.8
2023-01-22T22:00:10.217Z,0.8
2023-01-22T22:03:10.171Z,0.8
2023-01-22T22:06:11.392Z,0.8
2023-01-22T22:09:10.105Z,0.7
2023-01-22T22:12:10.174Z,0.7
2023-01-22T22:15:10.075Z,0.7
2023-01-22T22:18:10.133Z,0.7
2023-01-22T22:21:10.095Z,0.7
2023-01-22T22:24:10.169Z,0.6
2023-01-22T22:27:10.034Z,0.6
2023-01-22T22:30:10.200Z,0.6
2023-01-22T22:33:10.044Z,0.6
2023-01-22T22:36:10.014Z,0.6
2023-01-22T22:39:10.068Z,0.6
2023-01-22T22:42:10.149Z,0.6
2023-01-22T22:45:10.095Z,0.6
2023-01-22T22:48:10.092Z,0.6
2023-01-22T22:51:10.375Z,0.6
2023-01-22T22:54:10.081Z,0.6
2023-01-22T22:57:10.106Z,0.6
2023-01-22T23:00:11.050Z,0.5
2023-01-22T23:03:10.187Z,0.5
2023-01-22T23:06:10.137Z,0.4
2023-01-22T23:09:13.146Z,0.5
2023-01-22T23:12:10.110Z,0.4
2023-01-22T23:15:10.145Z,0.5
2023-01-22T23:18:10.031Z,0.5
2023-01-22T23:21:10.108Z,0.5
2023-01-22T23:24:10.155Z,0.6
2023-01-22T23:27:10.148Z,0.6
2023-01-22T23:30:10.050Z,0.6
2023-01-22T23:33:10.060Z,0.6
2023-01-22T23:36:10.113Z,0.6
2023-01-22T23:39:10.137Z,0.7
2023-01-22T23:42:10.131Z,0.7
2023-01-22T23:45:11.750Z,0.7
2023-01-22T23:48:10.319Z,0.7
2023-01-22T23:51:10.548Z,0.7
2023-01-22T23:54:10.102Z,0.8
2023-01-22T23:57:10.026Z,0.8
